Barrow Airport

About
Name: Barrow Airport
Identifier:  BRW/PABR
Local Time:  19. Aug 02:15 AKDT
Location
Flights per Day
14 flights
Distance: 474km (294mi)
Punctuality
63% (5 flights per day delayed)
Delay Average: 13 minutes
Current Weather
 4 C (Humidity: 93%)
  5kt (9km/h / 5mph) from 360°
  Overcast at 300 feet (91 meter)
  12km (8 mi.)
 METAR PABR 190853Z AUTO 36005KT 8SM OVC003 04/03 A3034 RMK AO2 SLP274 T00440028 400670039 56010 TSNO

Current Flights

Departures
Number Departure To Airline
Arrivals
Number Arrival From Airline
 AS55 10:50  Deadhorse  Alaska Airlines

Current Delays

Departures
N/A
Arrivals
N/A

Destinations

Top Destinations
Airport Flights
per week
Seats
per week
  Anchorage (ANC) 19 1,371 2 195
  Deadhorse (SCC) 17 1,741 2 248
  Fairbanks (FAI) 7 904 1 129
  Barter Island (BTI) 2 86 0 12
  Nome (OME) 1 25 0 3
  Anaktuvuk Pass (AKP) 0 - 0 0
  Kotzebue (OTZ) 0 8 0 1
  Point Hope (PHO) 0 - 0 0

Airlines & Planes

Top Airlines
Airline Flights
per Day
Seats
per Day
  Alaska Airlines 5 549
  Northern Air Cargo 0 20
  Era Alaska 0 20
Ravn Alaska 0 -
  Everts Air 0 -
Bering Air 0 -
Top Plane Types
Model Flights Seats
Boeing B737-700 4.7/day 462/day 462.93333333333334
Boeing B737-300 0.8/day - 0
Bombardier Dash 8-100 0.6/day 20/day 20.966666666666665
Boeing B737-800 0.5/day 86/day 86.93333333333334
Beech 1900D 0.2/day - 0
Boeing B737-400 0.1/day 20/day 20.4
McDonnell-Douglas MD-83 0.1/day - 0
Beech B200 Super King Air 0.0/day - 0